Time;durP1;ratioP1;P1;durP2;ratioP2;P2;SDS_P1;SDS_P2;PMS_P1;PMS_P2;Temp;Humidity;BMP_temperature;BMP_pressure;BME280_temperature;BME280_humidity;BME280_pressure;Samples;Min_cycle;Max_cycle;Signal;HPM_P1;HPM_P2
2022/04/22 00:01:16;;;;;;;5.45;3.55;;;12.80;97.80;;;;;;5036690;28;20020;-85
2022/04/22 00:03:42;;;;;;;5.95;3.83;;;11.60;97.80;;;;;;5061951;28;20032;-88
2022/04/22 00:06:08;;;;;;;7.45;4.20;;;11.50;98.40;;;;;;5046860;28;20020;-83
2022/04/22 00:08:34;;;;;;;10.55;4.07;;;11.50;98.80;;;;;;5041542;28;20504;-86
2022/04/22 00:13:45;;;;;;;6.57;3.58;;;11.50;99.60;;;;;;5058158;28;20052;-83
2022/04/22 00:16:11;;;;;;;6.05;4.10;;;;;;;;;;5073519;28;20024;-89
2022/04/22 00:18:37;;;;;;;6.22;4.03;;;11.40;99.90;;;;;;5059121;28;20021;-85
2022/04/22 00:21:03;;;;;;;6.32;4.43;;;11.70;99.90;;;;;;5061016;28;20051;-87
2022/04/22 00:23:29;;;;;;;6.93;4.00;;;;;;;;;;5057812;28;20064;-87
2022/04/22 00:25:56;;;;;;;8.50;4.60;;;11.30;99.90;;;;;;5073758;28;20031;-87
2022/04/22 00:28:22;;;;;;;6.35;4.38;;;11.20;99.90;;;;;;5034951;28;20021;-85
2022/04/22 00:30:47;;;;;;;11.27;5.55;;;12.60;99.90;;;;;;5041436;28;20028;-84
2022/04/22 00:33:17;;;;;;;7.90;5.13;;;8.90;99.90;;;;;;5034579;28;20470;-87
2022/04/22 00:35:44;;;;;;;9.18;4.72;;;13.20;99.90;;;;;;5055836;28;20036;-85
2022/04/22 00:38:12;;;;;;;6.57;4.28;;;11.80;99.90;;;;;;5052264;28;20119;-86
2022/04/22 00:40:39;;;;;;;7.43;3.90;;;11.40;99.90;;;;;;5035839;28;20037;-84
2022/04/22 00:43:15;;;;;;;8.07;5.20;;;11.20;99.90;;;;;;5063194;28;20020;-86
2022/04/22 00:45:41;;;;;;;6.75;4.35;;;11.10;99.90;;;;;;5067623;28;20040;-87
2022/04/22 00:48:08;;;;;;;6.40;4.30;;;11.20;99.90;;;;;;5052075;28;20020;-86
2022/04/22 00:50:34;;;;;;;7.32;4.30;;;13.00;99.90;;;;;;5067827;28;20025;-86
2022/04/22 00:53:00;;;;;;;7.55;4.72;;;11.30;99.90;;;;;;5049508;28;20024;-87
2022/04/22 00:55:27;;;;;;;6.72;4.70;;;11.90;99.90;;;;;;5045049;28;20029;-87
2022/04/22 00:57:53;;;;;;;6.05;4.47;;;12.30;99.90;;;;;;5055381;28;20036;-87
2022/04/22 01:00:20;;;;;;;9.45;4.90;;;11.10;99.90;;;;;;5020303;28;20045;-86
2022/04/22 01:02:47;;;;;;;6.95;5.13;;;13.10;99.90;;;;;;5056359;28;20083;-83
2022/04/22 01:10:43;;;;;;;7.57;4.95;;;12.20;99.90;;;;;;5060234;28;20377;-85
2022/04/22 01:13:09;;;;;;;9.55;5.00;;;10.90;99.90;;;;;;5040903;28;20029;-86
2022/04/22 01:15:38;;;;;;;8.50;5.53;;;11.50;99.90;;;;;;5038207;28;20033;-85
2022/04/22 01:18:04;;;;;;;7.10;4.88;;;10.80;99.90;;;;;;5056574;28;20068;-86
2022/04/22 01:20:30;;;;;;;8.00;4.88;;;12.80;99.90;;;;;;5034019;28;20028;-85
2022/04/22 01:22:56;;;;;;;7.88;5.10;;;13.40;99.90;;;;;;5066693;28;20024;-87
2022/04/22 01:25:22;;;;;;;9.73;5.63;;;;;;;;;;5051197;28;20021;-86
2022/04/22 01:27:50;;;;;;;9.95;5.47;;;10.80;99.90;;;;;;5051885;28;20041;-88
2022/04/22 01:30:20;;;;;;;8.38;5.68;;;10.80;99.90;;;;;;5038322;28;20409;-87
2022/04/22 01:32:57;;;;;;;9.38;5.70;;;10.80;99.90;;;;;;5034716;28;20465;-86
2022/04/22 01:35:24;;;;;;;8.73;5.75;;;10.50;99.90;;;;;;5037012;28;20051;-87
2022/04/22 01:37:50;;;;;;;9.82;5.57;;;10.60;99.90;;;;;;5052156;28;20174;-85
2022/04/22 01:40:16;;;;;;;8.38;5.50;;;10.60;99.90;;;;;;5051631;28;20029;-84
2022/04/22 01:42:43;;;;;;;9.07;5.80;;;10.50;99.90;;;;;;5034642;28;20040;-85
2022/04/22 01:45:10;;;;;;;9.43;6.00;;;10.40;99.90;;;;;;5058771;28;20101;-87
2022/04/22 01:47:35;;;;;;;10.05;5.82;;;11.80;99.90;;;;;;5035373;28;20025;-86
2022/04/22 01:50:03;;;;;;;9.60;5.82;;;10.50;99.90;;;;;;5052347;28;20020;-87
2022/04/22 01:52:29;;;;;;;8.63;6.47;;;10.40;99.90;;;;;;5051972;28;20025;-87
2022/04/22 01:54:56;;;;;;;11.52;6.53;;;12.50;99.90;;;;;;5039384;28;20033;-87
2022/04/22 01:57:24;;;;;;;9.20;6.25;;;10.30;99.90;;;;;;5055193;28;20032;-84
2022/04/22 01:59:50;;;;;;;10.02;6.43;;;10.30;99.90;;;;;;5043594;28;20040;-85
2022/04/22 02:02:17;;;;;;;9.13;6.43;;;9.40;99.90;;;;;;5037584;28;20092;-86
2022/04/22 02:04:43;;;;;;;10.63;7.03;;;10.20;99.90;;;;;;5037189;28;20033;-85
2022/04/22 02:07:09;;;;;;;12.75;7.55;;;10.40;99.90;;;;;;5053971;28;20041;-87
2022/04/22 02:09:35;;;;;;;9.45;6.75;;;10.30;99.90;;;;;;5053310;28;20044;-86
2022/04/22 02:12:03;;;;;;;11.55;7.50;;;10.20;99.90;;;;;;5039655;28;20028;-85
2022/04/22 02:14:30;;;;;;;9.32;6.72;;;10.20;99.90;;;;;;5037021;28;20048;-85
2022/04/22 02:16:56;;;;;;;11.20;6.93;;;11.30;99.90;;;;;;5052226;28;20083;-86
2022/04/22 02:19:21;;;;;;;10.55;7.15;;;9.20;99.90;;;;;;5052980;28;20025;-86
2022/04/22 02:21:49;;;;;;;11.10;7.57;;;10.00;99.90;;;;;;5036575;28;20051;-86
2022/04/22 02:24:15;;;;;;;11.32;6.97;;;11.80;99.90;;;;;;5039851;28;20402;-87
2022/04/22 02:29:26;;;;;;;12.30;7.45;;;10.00;99.90;;;;;;5058588;28;20039;-86
2022/04/22 02:31:53;;;;;;;13.55;7.93;;;10.10;99.90;;;;;;5071398;28;20590;-87
2022/04/22 02:34:23;;;;;;;10.63;7.68;;;9.90;99.90;;;;;;5053797;28;20021;-87
2022/04/22 02:36:50;;;;;;;11.80;8.25;;;10.10;99.90;;;;;;5038183;28;20051;-87
2022/04/22 02:39:16;;;;;;;13.18;8.25;;;10.40;99.90;;;;;;5041905;28;20035;-86
2022/04/22 02:47:11;;;;;;;14.00;8.90;;;11.40;99.90;;;;;;5043327;28;20035;-87
2022/04/22 02:49:37;;;;;;;12.73;8.32;;;10.10;99.90;;;;;;5042124;28;20115;-87
2022/04/22 02:52:03;;;;;;;13.27;9.23;;;;;;;;;;5038244;28;20092;-87
2022/04/22 02:54:33;;;;;;;12.35;9.10;;;9.70;99.90;;;;;;5075448;28;20043;-87
2022/04/22 02:56:59;;;;;;;16.45;8.35;;;9.70;99.90;;;;;;5042371;28;20576;-85
2022/04/22 02:59:26;;;;;;;15.80;8.98;;;10.60;99.90;;;;;;5059231;28;20029;-86
2022/04/22 03:01:51;;;;;;;14.98;8.88;;;9.80;99.90;;;;;;5056186;28;20032;-86
2022/04/22 03:04:18;;;;;;;14.70;8.52;;;;;;;;;;5061591;28;20025;-83
2022/04/22 03:06:44;;;;;;;14.80;9.68;;;9.60;99.90;;;;;;5038723;28;20047;-86
2022/04/22 03:09:09;;;;;;;14.68;9.65;;;9.10;99.90;;;;;;5061406;28;20068;-87
2022/04/22 03:11:35;;;;;;;14.90;9.50;;;9.60;99.90;;;;;;5041078;28;20041;-84
2022/04/22 03:14:03;;;;;;;14.40;9.38;;;10.80;99.90;;;;;;5056073;28;20286;-85
2022/04/22 03:16:29;;;;;;;15.80;9.82;;;8.60;99.90;;;;;;5055788;28;20086;-88
2022/04/22 03:18:55;;;;;;;15.93;10.05;;;11.50;99.90;;;;;;5054105;28;20029;-85
2022/04/22 03:21:22;;;;;;;14.93;9.98;;;;;;;;;;5039952;28;20031;-87
2022/04/22 03:23:48;;;;;;;14.25;9.45;;;9.30;99.90;;;;;;5036525;28;20111;-87
2022/04/22 03:26:14;;;;;;;13.50;10.05;;;10.70;99.90;;;;;;5049848;28;20092;-86
2022/04/22 03:28:40;;;;;;;15.80;10.60;;;9.30;99.90;;;;;;5054374;28;20542;-86
2022/04/22 03:31:06;;;;;;;16.05;9.75;;;10.60;99.90;;;;;;5034342;28;22180;-86
2022/04/22 03:33:32;;;;;;;15.77;10.55;;;12.10;99.90;;;;;;5043037;28;20029;-85
2022/04/22 03:35:59;;;;;;;15.85;10.48;;;10.60;99.90;;;;;;5036289;28;20051;-86
2022/04/22 03:38:24;;;;;;;18.58;10.60;;;9.20;99.90;;;;;;5037758;28;20072;-85
2022/04/22 03:40:52;;;;;;;14.05;8.95;;;9.40;99.90;;;;;;5045436;28;20033;-83
2022/04/22 03:43:18;;;;;;;16.83;10.63;;;10.50;99.90;;;;;;5040005;28;20033;-87
2022/04/22 03:45:44;;;;;;;18.23;10.32;;;11.60;99.90;;;;;;5036560;28;20021;-86
2022/04/22 03:48:12;;;;;;;17.48;11.43;;;9.40;99.90;;;;;;5037229;28;20029;-86
2022/04/22 03:50:38;;;;;;;17.10;11.30;;;9.10;99.90;;;;;;5054937;28;20039;-86
2022/04/22 03:53:05;;;;;;;17.25;11.15;;;10.60;99.90;;;;;;5061447;28;20032;-85
2022/04/22 03:55:32;;;;;;;16.38;11.15;;;10.40;99.90;;;;;;5046076;28;20037;-85
2022/04/22 03:58:13;;;;;;;16.35;11.20;;;11.10;99.90;;;;;;5062315;28;20037;-82
2022/04/22 04:00:42;;;;;;;;;;;10.60;99.90;;;;;;5049209;28;20457;-84
2022/04/22 04:03:12;;;;;;;21.02;13.23;;;10.80;99.90;;;;;;5066386;28;19927;-83
2022/04/22 04:05:49;;;;;;;24.48;11.73;;;9.70;99.90;;;;;;5049451;28;20056;-84
2022/04/22 04:08:17;;;;;;;19.55;11.68;;;9.30;99.90;;;;;;5062490;28;20046;-83
2022/04/22 04:15:57;;;;;;;18.65;11.98;;;10.10;99.90;;;;;;5057625;28;20555;-85
2022/04/22 04:16:28;;;;;;;20.30;12.25;;;10.10;99.90;;;;;;5061331;28;20040;-85
2022/04/22 04:23:14;;;;;;;19.45;12.23;;;9.10;99.90;;;;;;5064711;28;20033;-84
2022/04/22 04:24:23;;;;;;;21.52;12.60;;;8.90;99.90;;;;;;5066993;28;20039;-82
2022/04/22 04:26:49;;;;;;;23.02;13.57;;;8.90;99.90;;;;;;5043437;28;20029;-83
2022/04/22 04:29:16;;;;;;;21.92;12.68;;;;;;;;;;5038831;28;20045;-84
2022/04/22 04:31:41;;;;;;;20.95;13.30;;;8.90;99.90;;;;;;5036811;28;20033;-85
2022/04/22 04:34:07;;;;;;;25.30;13.75;;;9.00;99.90;;;;;;5042605;28;20064;-88
2022/04/22 04:36:33;;;;;;;21.73;13.18;;;8.80;99.90;;;;;;5038465;28;20068;-86
2022/04/22 04:38:58;;;;;;;25.92;14.50;;;10.10;99.90;;;;;;5053106;28;20176;-85
2022/04/22 04:41:24;;;;;;;22.55;13.90;;;9.00;99.90;;;;;;5052717;28;20048;-84
2022/04/22 04:43:51;;;;;;;22.90;13.90;;;8.80;99.90;;;;;;5053977;28;20036;-84
2022/04/22 04:46:18;;;;;;;22.77;13.30;;;8.90;99.90;;;;;;5059583;28;20017;-85
2022/04/22 04:48:44;;;;;;;26.80;15.98;;;8.80;99.90;;;;;;5043401;28;20029;-85
2022/04/22 04:51:09;;;;;;;23.95;14.65;;;8.80;99.90;;;;;;5056341;28;20094;-83
2022/04/22 04:53:35;;;;;;;22.77;14.32;;;8.80;99.90;;;;;;5072281;28;20036;-83
2022/04/22 04:56:01;;;;;;;22.35;14.13;;;8.80;99.90;;;;;;5056173;28;20025;-84
2022/04/22 04:58:27;;;;;;;21.75;13.70;;;8.90;99.90;;;;;;5056718;28;20025;-86
2022/04/22 05:00:53;;;;;;;25.92;14.93;;;;;;;;;;5053833;28;20036;-84
2022/04/22 05:03:19;;;;;;;25.52;14.68;;;9.10;99.90;;;;;;5074373;28;20021;-86
2022/04/22 05:05:45;;;;;;;24.75;14.88;;;10.10;99.90;;;;;;5045141;28;20051;-85
2022/04/22 05:08:11;;;;;;;23.02;14.38;;;8.30;99.90;;;;;;5055973;28;20032;-86
2022/04/22 05:10:37;;;;;;;24.55;14.90;;;;;;;;;;5050188;28;20055;-83
2022/04/22 05:13:04;;;;;;;26.15;14.77;;;9.00;99.90;;;;;;5065631;28;20036;-87
2022/04/22 05:15:32;;;;;;;28.35;15.60;;;9.00;99.90;;;;;;5050642;28;20033;-85
2022/04/22 05:17:59;;;;;;;24.85;14.75;;;9.00;99.90;;;;;;5067496;28;20093;-84
2022/04/22 05:20:27;;;;;;;25.15;15.60;;;10.50;99.90;;;;;;5067042;28;20028;-85
2022/04/22 05:22:54;;;;;;;25.92;15.82;;;9.00;99.90;;;;;;5048796;28;20035;-83
2022/04/22 05:25:22;;;;;;;25.55;15.40;;;9.10;99.90;;;;;;5035900;28;21330;-84
2022/04/22 05:27:48;;;;;;;24.55;14.55;;;9.10;99.90;;;;;;5037976;28;20510;-85
2022/04/22 05:33:00;;;;;;;27.88;15.43;;;9.10;99.90;;;;;;5052793;28;20134;-84
2022/04/22 05:35:27;;;;;;;24.02;14.48;;;9.10;99.90;;;;;;5031505;28;20025;-82
2022/04/22 05:38:00;;;;;;;26.83;15.52;;;10.20;99.90;;;;;;5035134;28;20053;-85
2022/04/22 05:40:28;;;;;;;26.95;15.88;;;9.30;99.90;;;;;;5041168;28;20024;-82
2022/04/22 05:42:54;;;;;;;24.63;14.85;;;9.30;99.90;;;;;;5046605;28;20029;-84
2022/04/22 05:45:22;;;;;;;31.40;16.70;;;10.30;99.90;;;;;;5044466;28;20213;-85
2022/04/22 05:47:48;;;;;;;23.77;15.02;;;9.30;99.90;;;;;;5063572;28;20025;-84
2022/04/22 05:50:16;;;;;;;25.67;15.60;;;9.30;99.90;;;;;;5046111;28;20036;-85
2022/04/22 05:52:43;;;;;;;26.73;16.00;;;9.30;99.90;;;;;;5047932;28;20036;-86
2022/04/22 05:55:16;;;;;;;28.27;15.40;;;9.40;99.90;;;;;;5043004;28;20035;-88
2022/04/22 05:57:42;;;;;;;24.52;15.98;;;9.60;99.90;;;;;;5046973;28;20032;-84
2022/04/22 06:00:11;;;;;;;24.92;15.27;;;9.50;99.90;;;;;;5054073;28;20036;-85
2022/04/22 06:02:37;;;;;;;33.33;15.68;;;9.60;99.90;;;;;;5057576;28;20029;-86
2022/04/22 06:05:03;;;;;;;25.15;15.60;;;10.50;99.90;;;;;;5081842;28;20021;-83
2022/04/22 06:07:28;;;;;;;28.73;16.15;;;9.70;99.90;;;;;;5062936;28;20021;-87
2022/04/22 06:12:38;;;;;;;25.85;15.57;;;12.10;99.90;;;;;;5064494;28;20048;-85
2022/04/22 06:15:05;;;;;;;27.60;14.77;;;10.00;99.90;;;;;;5047882;28;20395;-84
2022/04/22 06:17:32;;;;;;;29.08;16.23;;;10.10;99.90;;;;;;5064697;28;20660;-85
2022/04/22 06:19:58;;;;;;;24.27;15.27;;;10.20;99.90;;;;;;5059694;28;20036;-84
2022/04/22 06:22:25;;;;;;;28.80;16.02;;;8.90;99.90;;;;;;5048698;28;20025;-86
2022/04/22 06:24:51;;;;;;;24.77;14.45;;;10.50;99.90;;;;;;5049013;28;20424;-84
2022/04/22 06:27:28;;;;;;;25.83;15.15;;;12.40;99.90;;;;;;5050101;28;20113;-84
2022/04/22 06:29:54;;;;;;;26.92;15.15;;;10.60;99.90;;;;;;5049592;28;20344;-85
2022/04/22 06:32:26;;;;;;;25.00;14.98;;;10.70;99.90;;;;;;5045257;28;20088;-85
2022/04/22 06:34:52;;;;;;;23.50;14.57;;;10.70;99.90;;;;;;5040367;28;20482;-86
2022/04/22 06:37:18;;;;;;;23.92;14.10;;;10.70;99.90;;;;;;5041351;28;20041;-85
2022/04/22 06:48:11;;;;;;;28.45;17.02;;;11.10;99.90;;;;;;5052302;28;20539;-86
2022/04/22 06:50:36;;;;;;;23.38;14.93;;;11.10;99.90;;;;;;5033751;28;20439;-86
2022/04/22 06:53:02;;;;;;;23.83;14.52;;;11.00;99.90;;;;;;5033623;28;20120;-82
2022/04/22 06:55:28;;;;;;;24.10;15.40;;;11.10;99.90;;;;;;5048343;28;20606;-82
2022/04/22 06:57:57;;;;;;;25.88;15.52;;;11.10;99.90;;;;;;5027708;28;21421;-86
2022/04/22 07:00:23;;;;;;;25.65;14.93;;;11.10;99.90;;;;;;5029570;28;20025;-87
2022/04/22 07:02:49;;;;;;;23.05;15.10;;;11.20;99.90;;;;;;5033651;28;20033;-85
2022/04/22 07:05:15;;;;;;;24.88;14.73;;;11.30;99.90;;;;;;5045542;28;20055;-85
2022/04/22 07:07:41;;;;;;;24.95;15.32;;;11.50;99.90;;;;;;5034723;28;20038;-87
2022/04/22 07:10:07;;;;;;;27.20;14.32;;;11.40;99.90;;;;;;5023658;28;20037;-84
2022/04/22 07:12:33;;;;;;;23.77;13.57;;;11.40;99.90;;;;;;5039782;28;20033;-84
2022/04/22 07:15:06;;;;;;;23.52;14.57;;;11.50;99.90;;;;;;5057346;28;20025;-85
2022/04/22 07:17:35;;;;;;;23.30;13.82;;;11.50;99.90;;;;;;5058154;28;20055;-87
2022/04/22 07:20:11;;;;;;;21.63;13.45;;;11.70;99.90;;;;;;5054500;28;20024;-86
2022/04/22 07:22:38;;;;;;;21.92;14.15;;;11.80;99.90;;;;;;5045336;28;20100;-86
2022/04/22 07:25:05;;;;;;;22.13;14.00;;;11.90;99.90;;;;;;5061659;28;20029;-83
2022/04/22 07:27:34;;;;;;;21.98;13.75;;;11.90;99.90;;;;;;5051247;28;20052;-84
2022/04/22 07:30:00;;;;;;;21.30;12.52;;;12.00;99.90;;;;;;5035062;28;20075;-84
2022/04/22 07:32:29;;;;;;;21.02;13.55;;;12.00;99.90;;;;;;5056759;28;20033;-86
2022/04/22 07:34:55;;;;;;;30.13;15.52;;;12.00;99.90;;;;;;5058716;28;20103;-84
2022/04/22 07:37:21;;;;;;;21.25;13.30;;;12.00;99.90;;;;;;5056313;28;20029;-84
2022/04/22 07:39:48;;;;;;;20.88;12.98;;;12.00;99.90;;;;;;5041183;28;20034;-82
2022/04/22 07:42:18;;;;;;;23.65;14.30;;;12.10;99.90;;;;;;5041635;28;20754;-86
2022/04/22 07:47:34;;;;;;;23.70;13.07;;;12.40;99.90;;;;;;5059496;28;19923;-83
2022/04/22 07:50:05;;;;;;;21.35;13.93;;;12.50;99.90;;;;;;5058778;28;20029;-84
2022/04/22 07:52:34;;;;;;;;;;;12.70;99.90;;;;;;5038578;28;20033;-85
2022/04/22 07:55:01;;;;;;;23.35;13.18;;;12.80;99.90;;;;;;5040856;28;19955;-86
2022/04/22 07:57:27;;;;;;;22.02;13.52;;;13.30;99.90;;;;;;5043078;28;20025;-82
2022/04/22 07:59:54;;;;;;;20.00;12.65;;;12.90;99.90;;;;;;5054999;28;20024;-83
2022/04/22 08:02:20;;;;;;;20.17;12.73;;;12.80;99.90;;;;;;5069959;28;20032;-83
2022/04/22 08:04:46;;;;;;;19.15;12.27;;;13.00;99.90;;;;;;5063211;28;20040;-87
2022/04/22 08:07:11;;;;;;;20.40;12.38;;;13.00;99.90;;;;;;5060957;28;20028;-85
2022/04/22 08:09:38;;;;;;;17.38;12.07;;;13.00;99.90;;;;;;5059866;28;20128;-83
2022/04/22 08:12:05;;;;;;;18.83;11.43;;;13.00;99.90;;;;;;5055869;28;20037;-84
2022/04/22 08:14:34;;;;;;;18.83;12.50;;;13.10;99.90;;;;;;5054157;28;20044;-85
2022/04/22 08:17:01;;;;;;;19.27;12.65;;;13.10;99.90;;;;;;5039598;28;20057;-86
2022/04/22 08:19:27;;;;;;;21.63;13.55;;;13.20;99.90;;;;;;5073886;28;20028;-85
2022/04/22 08:21:53;;;;;;;19.38;12.13;;;13.40;99.90;;;;;;5038742;28;20052;-82
2022/04/22 08:24:19;;;;;;;18.65;11.88;;;13.50;99.90;;;;;;5054077;28;20025;-82
2022/04/22 08:26:45;;;;;;;19.98;11.70;;;13.70;99.90;;;;;;5053282;28;20040;-84
2022/04/22 08:29:11;;;;;;;20.42;13.23;;;13.80;99.80;;;;;;5034933;28;20039;-86
2022/04/22 08:31:37;;;;;;;19.95;12.10;;;13.80;99.40;;;;;;5053614;28;20059;-83
2022/04/22 08:34:03;;;;;;;17.77;12.50;;;13.70;99.40;;;;;;5052401;28;20040;-84
2022/04/22 08:36:30;;;;;;;18.25;12.30;;;13.80;99.00;;;;;;5053562;28;20029;-83
2022/04/22 08:38:59;;;;;;;17.77;11.93;;;14.00;99.20;;;;;;5034228;28;20044;-85
2022/04/22 08:41:26;;;;;;;18.85;12.10;;;14.00;98.50;;;;;;5051820;28;20051;-85
2022/04/22 08:43:56;;;;;;;19.63;13.13;;;14.20;97.80;;;;;;5038093;28;20025;-86
2022/04/22 08:51:51;;;;;;;20.13;12.65;;;14.00;97.60;;;;;;5057576;28;20041;-84
2022/04/22 08:54:18;;;;;;;17.17;11.73;;;;;;;;;;5050411;28;20094;-84
2022/04/22 08:56:44;;;;;;;18.55;11.82;;;14.40;96.60;;;;;;5027200;28;20033;-81
2022/04/22 08:59:10;;;;;;;16.20;11.25;;;16.70;97.20;;;;;;5027881;28;20028;-85
2022/04/22 09:01:38;;;;;;;18.08;11.65;;;14.30;96.70;;;;;;5033080;28;20056;-85
2022/04/22 09:04:05;;;;;;;17.38;11.40;;;14.40;96.70;;;;;;5037909;28;20025;-83
2022/04/22 09:06:31;;;;;;;18.60;11.55;;;14.40;96.50;;;;;;5046597;28;20070;-84
2022/04/22 09:08:58;;;;;;;19.02;11.30;;;14.40;96.50;;;;;;5035543;28;20119;-87
2022/04/22 09:11:24;;;;;;;19.02;11.80;;;14.40;96.60;;;;;;5028039;28;20029;-83
2022/04/22 09:13:50;;;;;;;19.52;11.30;;;14.60;96.30;;;;;;5027348;28;20048;-81
2022/04/22 09:16:22;;;;;;;14.48;10.30;;;14.60;96.30;;;;;;5046377;28;20021;-84
2022/04/22 09:18:57;;;;;;;16.75;12.02;;;14.80;95.70;;;;;;5045987;28;20021;-84
2022/04/22 09:21:25;;;;;;;16.67;10.93;;;;;;;;;;5033612;28;20037;-86
2022/04/22 09:23:51;;;;;;;18.50;11.68;;;14.70;95.00;;;;;;5044556;28;20454;-84
2022/04/22 09:26:22;;;;;;;16.70;9.90;;;14.90;94.80;;;;;;5036875;28;20037;-84
2022/04/22 09:29:04;;;;;;;13.68;9.40;;;14.90;94.70;;;;;;5072990;28;20615;-84
2022/04/22 09:31:48;;;;;;;23.85;13.00;;;15.10;94.60;;;;;;5030003;28;20047;-82
2022/04/22 09:34:14;;;;;;;16.27;10.00;;;15.40;94.10;;;;;;5040408;28;20029;-83
2022/04/22 09:45:00;;;;;;;15.65;9.15;;;;;;;;;;5060992;28;20099;-84
2022/04/22 09:47:32;;;;;;;15.95;10.32;;;16.70;98.60;;;;;;5059429;28;20093;-80
2022/04/22 09:49:58;;;;;;;14.95;9.10;;;;;;;;;;5052651;28;20025;-81
2022/04/22 09:52:28;;;;;;;13.52;8.73;;;;;;;;;;5068294;28;20021;-84
2022/04/22 09:54:59;;;;;;;14.07;10.20;;;16.20;91.10;;;;;;5069059;28;20040;-81
2022/04/22 09:57:26;;;;;;;13.60;9.60;;;16.10;91.00;;;;;;5071335;28;20033;-83
2022/04/22 09:59:52;;;;;;;16.00;10.27;;;16.10;91.20;;;;;;5054328;28;20040;-85
2022/04/22 10:02:23;;;;;;;14.73;10.18;;;16.50;90.90;;;;;;5058761;28;20020;-84
2022/04/22 10:04:49;;;;;;;;;;;;;;;;;;5044443;28;20028;-80
2022/04/22 10:07:17;;;;;;;14.20;9.80;;;16.70;87.90;;;;;;5055080;28;20630;-81
2022/04/22 10:09:45;;;;;;;14.70;10.18;;;16.70;88.50;;;;;;5060081;28;20553;-82
2022/04/22 10:12:15;;;;;;;14.82;9.65;;;16.40;89.10;;;;;;5058636;28;20047;-83
2022/04/22 10:14:43;;;;;;;12.45;9.32;;;16.50;89.80;;;;;;5057932;28;20029;-81
2022/04/22 10:17:11;;;;;;;11.95;8.25;;;16.70;88.50;;;;;;5074595;28;20064;-82
2022/04/22 10:19:37;;;;;;;16.42;10.27;;;16.90;87.70;;;;;;5059971;28;20030;-85
2022/04/22 10:22:07;;;;;;;13.95;9.88;;;16.70;88.10;;;;;;5060544;28;20029;-81
2022/04/22 10:24:33;;;;;;;14.73;9.23;;;16.80;85.90;;;;;;5061299;28;20045;-82
2022/04/22 10:27:00;;;;;;;13.70;9.00;;;;;;;;;;5045186;28;20029;-83
2022/04/22 10:29:29;;;;;;;14.18;9.60;;;;;;;;;;5057643;28;20040;-84
2022/04/22 10:31:56;;;;;;;13.13;8.20;;;17.10;84.20;;;;;;5062306;28;20115;-84
2022/04/22 10:34:37;;;;;;;12.60;8.88;;;17.20;83.60;;;;;;5040976;28;20057;-84
2022/04/22 10:37:04;;;;;;;12.80;8.80;;;;;;;;;;5044680;28;20546;-83
2022/04/22 10:39:38;;;;;;;13.65;8.07;;;;;;;;;;5069956;28;20036;-84
2022/04/22 10:42:16;;;;;;;14.02;9.20;;;17.40;81.90;;;;;;5074781;28;20037;-81
2022/04/22 10:47:47;;;;;;;14.07;9.25;;;17.40;81.90;;;;;;5062173;28;20062;-81
2022/04/22 10:50:32;;;;;;;11.15;8.48;;;17.40;82.20;;;;;;5061939;28;20062;-82
2022/04/22 10:53:09;;;;;;;12.27;8.77;;;17.40;81.80;;;;;;5061370;28;20032;-83
2022/04/22 10:55:42;;;;;;;11.38;8.20;;;17.90;80.40;;;;;;5045548;28;20087;-83
2022/04/22 10:58:14;;;;;;;11.57;8.52;;;17.90;79.10;;;;;;5068804;28;20036;-84
2022/04/22 11:00:53;;;;;;;16.95;8.02;;;18.00;78.80;;;;;;5077654;28;20048;-84
2022/04/22 11:03:20;;;;;;;12.80;8.37;;;18.10;79.30;;;;;;5044932;28;20085;-81
2022/04/22 11:05:51;;;;;;;9.88;7.95;;;18.00;77.40;;;;;;5047051;28;20031;-82
2022/04/22 11:08:36;;;;;;;12.82;7.80;;;18.00;78.50;;;;;;5066389;28;20104;-83
2022/04/22 11:11:03;;;;;;;11.65;7.60;;;18.20;76.20;;;;;;5064854;28;20040;-87
2022/04/22 11:13:38;;;;;;;11.23;7.63;;;;;;;;;;5059640;28;20013;-82
2022/04/22 11:16:05;;;;;;;9.05;7.13;;;;;;;;;;5049268;28;20054;-83
2022/04/22 11:18:31;;;;;;;10.20;6.82;;;;;;;;;;5073721;28;20033;-82
2022/04/22 11:21:04;;;;;;;8.27;6.80;;;18.70;74.20;;;;;;5068953;28;20025;-84
2022/04/22 11:23:44;;;;;;;10.32;6.75;;;19.30;74.00;;;;;;5070477;28;20013;-84
2022/04/22 11:26:15;;;;;;;12.40;8.05;;;18.70;73.40;;;;;;5067840;28;20025;-85
2022/04/22 11:28:44;;;;;;;11.45;7.03;;;18.80;72.60;;;;;;5054726;28;20048;-85
2022/04/22 11:31:12;;;;;;;8.77;6.93;;;18.90;71.90;;;;;;5041613;28;20092;-84
2022/04/22 11:33:41;;;;;;;9.80;6.93;;;;;;;;;;5041395;28;20029;-83
2022/04/22 11:36:07;;;;;;;8.02;6.35;;;18.90;71.90;;;;;;5079378;28;20025;-83
2022/04/22 11:38:33;;;;;;;9.00;6.63;;;;;;;;;;5062719;28;20541;-83
2022/04/22 11:41:00;;;;;;;9.43;6.47;;;;;;;;;;5042187;28;20035;-82
2022/04/22 11:43:28;;;;;;;11.70;6.85;;;19.40;69.30;;;;;;5053262;28;20047;-84
2022/04/22 11:45:54;;;;;;;8.60;6.07;;;;;;;;;;5054709;28;20021;-84
2022/04/22 11:48:24;;;;;;;8.73;6.75;;;19.40;68.10;;;;;;5074742;28;20075;-84
2022/04/22 11:50:53;;;;;;;10.73;6.78;;;19.40;68.30;;;;;;5040686;28;20021;-82
2022/04/22 11:53:26;;;;;;;7.63;6.20;;;19.40;68.20;;;;;;5043916;28;20050;-83
2022/04/22 11:55:52;;;;;;;9.35;6.80;;;;;;;;;;5042237;28;20033;-84
2022/04/22 11:58:25;;;;;;;9.13;6.47;;;19.30;67.80;;;;;;5059950;28;20037;-83
2022/04/22 12:06:21;;;;;;;8.60;7.05;;;19.10;69.10;;;;;;5063632;28;20055;-84
2022/04/22 12:09:05;;;;;;;10.05;6.40;;;19.30;68.90;;;;;;5075708;28;20057;-85
2022/04/22 12:11:42;;;;;;;9.70;6.88;;;19.30;69.60;;;;;;5075047;28;20025;-81
2022/04/22 12:14:08;;;;;;;8.98;6.63;;;;;;;;;;5058554;28;20025;-81
2022/04/22 12:16:35;;;;;;;9.23;6.72;;;;;;;;;;5056737;28;20032;-84
2022/04/22 12:19:01;;;;;;;9.45;6.25;;;;;;;;;;5034056;28;20029;-82
2022/04/22 12:21:33;;;;;;;8.40;6.35;;;19.60;66.30;;;;;;5064707;28;20016;-83
2022/04/22 12:24:00;;;;;;;9.05;6.30;;;19.60;66.80;;;;;;5064539;28;20196;-82
2022/04/22 12:26:30;;;;;;;9.30;6.80;;;19.50;67.30;;;;;;5060866;28;20025;-82
2022/04/22 12:29:00;;;;;;;;;;;19.50;67.30;;;;;;5046105;28;20025;-83
2022/04/22 12:31:28;;;;;;;10.13;6.50;;;19.50;67.00;;;;;;5054916;28;19916;-84
2022/04/22 12:34:06;;;;;;;10.23;6.85;;;19.40;66.40;;;;;;5051419;28;20337;-84
2022/04/22 12:36:36;;;;;;;7.70;5.85;;;19.40;66.90;;;;;;5071895;28;20037;-85
2022/04/22 12:39:06;;;;;;;8.80;6.22;;;19.30;67.00;;;;;;5068532;28;20081;-83
2022/04/22 12:41:45;;;;;;;11.55;6.03;;;19.50;66.90;;;;;;5038723;28;20032;-85
2022/04/22 12:44:13;;;;;;;10.73;6.68;;;19.50;66.30;;;;;;5075822;28;20120;-83
2022/04/22 12:52:16;;;;;;;8.30;7.00;;;;;;;;;;5057073;28;20044;-81
2022/04/22 12:54:45;;;;;;;8.93;6.32;;;19.70;66.30;;;;;;5053406;28;20035;-84
2022/04/22 12:57:23;;;;;;;10.25;6.28;;;19.70;66.90;;;;;;5054891;28;20130;-83
2022/04/22 12:59:54;;;;;;;9.65;6.60;;;19.90;66.70;;;;;;5035853;28;20039;-83
2022/04/22 13:02:33;;;;;;;7.75;6.00;;;20.20;65.40;;;;;;5050205;28;20032;-82
2022/04/22 13:05:15;;;;;;;8.35;6.13;;;20.10;65.90;;;;;;5038003;28;20025;-86
2022/04/22 13:07:44;;;;;;;7.43;5.90;;;19.80;66.20;;;;;;5040434;28;21020;-84
2022/04/22 13:10:11;;;;;;;9.88;5.95;;;;;;;;;;5045960;28;20037;-84
2022/04/22 13:12:39;;;;;;;8.90;6.50;;;;;;;;;;5041369;28;20033;-83
2022/04/22 13:15:21;;;;;;;8.13;5.28;;;19.90;64.80;;;;;;5067433;28;20071;-85
2022/04/22 13:17:49;;;;;;;8.15;5.80;;;20.20;64.90;;;;;;5041675;28;20044;-85
2022/04/22 13:20:17;;;;;;;9.95;6.50;;;20.30;64.30;;;;;;5040134;28;20382;-81
2022/04/22 13:22:44;;;;;;;8.68;5.75;;;;;;;;;;5051528;28;20036;-84
2022/04/22 13:25:11;;;;;;;8.25;6.40;;;20.50;64.70;;;;;;5058681;28;20040;-84
2022/04/22 13:27:37;;;;;;;10.25;6.15;;;20.60;64.20;;;;;;5041429;28;20039;-85
2022/04/22 13:30:05;;;;;;;7.72;5.90;;;20.60;64.40;;;;;;5040764;28;20025;-84
2022/04/22 13:32:31;;;;;;;10.75;6.43;;;;;;;;;;5047979;28;20029;-86
2022/04/22 13:34:57;;;;;;;7.38;5.80;;;;;;;;;;5059538;28;20029;-86
2022/04/22 13:37:23;;;;;;;10.27;5.60;;;;;;;;;;5077221;28;20044;-88
2022/04/22 13:39:49;;;;;;;9.10;5.65;;;19.90;66.10;;;;;;5041693;28;20034;-84
2022/04/22 13:42:15;;;;;;;8.52;6.10;;;19.90;67.10;;;;;;5042998;28;20100;-85
2022/04/22 13:52:55;;;;;;;7.55;5.70;;;20.20;65.50;;;;;;5060959;28;20412;-83
2022/04/22 13:55:21;;;;;;;8.65;4.70;;;20.40;65.20;;;;;;5035664;28;20092;-81
2022/04/22 13:57:47;;;;;;;7.78;5.40;;;20.30;65.60;;;;;;5034175;28;20033;-80
2022/04/22 14:00:13;;;;;;;7.85;5.82;;;20.10;64.90;;;;;;5053859;28;20509;-83
2022/04/22 14:02:39;;;;;;;8.50;6.03;;;20.10;65.40;;;;;;5041545;28;20025;-83
2022/04/22 14:05:05;;;;;;;5.85;4.95;;;;;;;;;;5048089;28;20120;-85
2022/04/22 14:07:31;;;;;;;6.82;5.43;;;;;;;;;;5046050;28;20039;-82
2022/04/22 14:09:58;;;;;;;6.45;4.80;;;19.60;65.10;;;;;;5061707;28;20033;-83